sensor_id;sensor_type;location;lat;lon;timestamp;temperature;humidity
152;DHT22;68;48.792;9.164;2023-05-10T00:01:20;14.90;55.10
152;DHT22;68;48.792;9.164;2023-05-10T00:03:46;14.70;56.90
152;DHT22;68;48.792;9.164;2023-05-10T00:06:13;14.70;53.20
152;DHT22;68;48.792;9.164;2023-05-10T00:08:40;14.80;51.40
152;DHT22;68;48.792;9.164;2023-05-10T00:11:07;14.80;52.80
152;DHT22;68;48.792;9.164;2023-05-10T00:13:33;14.80;53.50
152;DHT22;68;48.792;9.164;2023-05-10T00:16:02;14.70;56.80
152;DHT22;68;48.792;9.164;2023-05-10T00:18:28;14.50;54.30
152;DHT22;68;48.792;9.164;2023-05-10T00:20:55;14.40;49.50
152;DHT22;68;48.792;9.164;2023-05-10T00:23:22;14.40;49.70
152;DHT22;68;48.792;9.164;2023-05-10T00:25:49;14.30;51.90
152;DHT22;68;48.792;9.164;2023-05-10T00:28:15;14.20;53.00
152;DHT22;68;48.792;9.164;2023-05-10T00:30:42;14.10;54.30
152;DHT22;68;48.792;9.164;2023-05-10T00:33:10;14.00;55.10
152;DHT22;68;48.792;9.164;2023-05-10T00:35:37;14.10;53.90
152;DHT22;68;48.792;9.164;2023-05-10T00:38:04;14.00;55.20
152;DHT22;68;48.792;9.164;2023-05-10T00:40:31;14.00;54.50
152;DHT22;68;48.792;9.164;2023-05-10T00:42:58;13.90;52.50
152;DHT22;68;48.792;9.164;2023-05-10T00:45:25;13.90;51.40
152;DHT22;68;48.792;9.164;2023-05-10T00:47:52;13.80;53.40
152;DHT22;68;48.792;9.164;2023-05-10T00:50:22;13.90;53.40
152;DHT22;68;48.792;9.164;2023-05-10T00:52:49;13.90;53.70
152;DHT22;68;48.792;9.164;2023-05-10T00:55:16;14.00;56.00
152;DHT22;68;48.792;9.164;2023-05-10T00:57:42;13.80;57.30
152;DHT22;68;48.792;9.164;2023-05-10T01:00:10;13.90;54.90
152;DHT22;68;48.792;9.164;2023-05-10T01:02:43;13.80;59.20
152;DHT22;68;48.792;9.164;2023-05-10T01:05:10;13.70;60.00
152;DHT22;68;48.792;9.164;2023-05-10T01:07:39;13.70;59.60
152;DHT22;68;48.792;9.164;2023-05-10T01:10:07;13.90;56.30
152;DHT22;68;48.792;9.164;2023-05-10T01:12:36;13.80;56.80
152;DHT22;68;48.792;9.164;2023-05-10T01:15:04;13.60;52.10
152;DHT22;68;48.792;9.164;2023-05-10T01:17:32;13.50;51.20
152;DHT22;68;48.792;9.164;2023-05-10T01:19:59;13.50;53.00
152;DHT22;68;48.792;9.164;2023-05-10T01:22:57;13.60;47.30
152;DHT22;68;48.792;9.164;2023-05-10T01:25:54;13.70;46.00
152;DHT22;68;48.792;9.164;2023-05-10T01:28:58;13.90;49.40
152;DHT22;68;48.792;9.164;2023-05-10T01:31:40;14.10;57.20
152;DHT22;68;48.792;9.164;2023-05-10T01:34:15;14.00;58.90
152;DHT22;68;48.792;9.164;2023-05-10T01:36:45;14.10;61.20
152;DHT22;68;48.792;9.164;2023-05-10T01:39:19;14.20;64.20
152;DHT22;68;48.792;9.164;2023-05-10T01:41:51;14.10;67.80
152;DHT22;68;48.792;9.164;2023-05-10T01:44:29;14.00;67.20
152;DHT22;68;48.792;9.164;2023-05-10T01:47:01;13.90;66.10
152;DHT22;68;48.792;9.164;2023-05-10T01:49:33;14.10;64.70
152;DHT22;68;48.792;9.164;2023-05-10T01:52:06;14.10;67.20
152;DHT22;68;48.792;9.164;2023-05-10T01:54:35;13.80;66.00
152;DHT22;68;48.792;9.164;2023-05-10T01:57:06;13.90;62.30
152;DHT22;68;48.792;9.164;2023-05-10T01:59:36;13.70;62.10
152;DHT22;68;48.792;9.164;2023-05-10T02:02:07;13.50;57.40
152;DHT22;68;48.792;9.164;2023-05-10T02:04:39;13.50;53.20
152;DHT22;68;48.792;9.164;2023-05-10T02:07:07;13.40;50.00
152;DHT22;68;48.792;9.164;2023-05-10T02:09:35;13.50;48.60
152;DHT22;68;48.792;9.164;2023-05-10T02:12:04;13.50;48.30
152;DHT22;68;48.792;9.164;2023-05-10T02:14:34;13.30;48.40
152;DHT22;68;48.792;9.164;2023-05-10T02:17:02;13.20;47.70
152;DHT22;68;48.792;9.164;2023-05-10T02:19:30;13.20;47.70
152;DHT22;68;48.792;9.164;2023-05-10T02:22:00;13.20;45.50
152;DHT22;68;48.792;9.164;2023-05-10T02:24:28;13.20;42.60
152;DHT22;68;48.792;9.164;2023-05-10T02:26:56;13.10;42.10
152;DHT22;68;48.792;9.164;2023-05-10T02:29:24;13.20;38.50
152;DHT22;68;48.792;9.164;2023-05-10T02:31:54;13.10;38.20
152;DHT22;68;48.792;9.164;2023-05-10T02:34:22;13.00;40.10
152;DHT22;68;48.792;9.164;2023-05-10T02:36:50;12.90;38.80
152;DHT22;68;48.792;9.164;2023-05-10T02:39:20;12.90;34.50
152;DHT22;68;48.792;9.164;2023-05-10T02:41:49;12.90;29.60
152;DHT22;68;48.792;9.164;2023-05-10T02:44:18;12.90;27.60
152;DHT22;68;48.792;9.164;2023-05-10T02:46:46;13.20;25.20
152;DHT22;68;48.792;9.164;2023-05-10T02:49:14;13.10;27.80
152;DHT22;68;48.792;9.164;2023-05-10T02:51:44;13.10;28.10
152;DHT22;68;48.792;9.164;2023-05-10T02:54:20;13.10;29.10
152;DHT22;68;48.792;9.164;2023-05-10T02:56:53;13.20;28.10
152;DHT22;68;48.792;9.164;2023-05-10T02:59:20;13.30;27.70
152;DHT22;68;48.792;9.164;2023-05-10T03:01:47;13.50;30.00
152;DHT22;68;48.792;9.164;2023-05-10T03:04:13;13.70;32.20
152;DHT22;68;48.792;9.164;2023-05-10T03:06:41;13.80;36.20
152;DHT22;68;48.792;9.164;2023-05-10T03:09:08;14.10;42.10
152;DHT22;68;48.792;9.164;2023-05-10T03:11:47;14.10;51.10
152;DHT22;68;48.792;9.164;2023-05-10T03:14:30;14.00;54.80
152;DHT22;68;48.792;9.164;2023-05-10T03:17:03;13.90;57.90
152;DHT22;68;48.792;9.164;2023-05-10T03:19:36;13.70;58.00
152;DHT22;68;48.792;9.164;2023-05-10T03:22:10;13.90;56.20
152;DHT22;68;48.792;9.164;2023-05-10T03:24:39;14.10;60.20
152;DHT22;68;48.792;9.164;2023-05-10T03:27:09;14.20;64.90
152;DHT22;68;48.792;9.164;2023-05-10T03:29:37;14.00;68.70
152;DHT22;68;48.792;9.164;2023-05-10T03:32:04;13.90;65.20
152;DHT22;68;48.792;9.164;2023-05-10T03:34:31;13.60;63.40
152;DHT22;68;48.792;9.164;2023-05-10T03:36:58;13.50;58.00
152;DHT22;68;48.792;9.164;2023-05-10T03:39:25;13.60;55.10
152;DHT22;68;48.792;9.164;2023-05-10T03:41:51;13.40;54.70
152;DHT22;68;48.792;9.164;2023-05-10T03:44:19;13.60;50.50
152;DHT22;68;48.792;9.164;2023-05-10T03:46:46;13.90;52.70
152;DHT22;68;48.792;9.164;2023-05-10T03:49:13;14.00;57.90
152;DHT22;68;48.792;9.164;2023-05-10T03:51:40;14.10;62.20
152;DHT22;68;48.792;9.164;2023-05-10T03:54:06;14.10;68.00
152;DHT22;68;48.792;9.164;2023-05-10T03:56:33;14.00;68.10
152;DHT22;68;48.792;9.164;2023-05-10T03:59:00;13.90;68.20
152;DHT22;68;48.792;9.164;2023-05-10T04:01:28;14.20;69.20
152;DHT22;68;48.792;9.164;2023-05-10T04:03:55;14.10;72.70
152;DHT22;68;48.792;9.164;2023-05-10T04:06:21;14.00;71.10
152;DHT22;68;48.792;9.164;2023-05-10T04:08:48;14.00;71.30
152;DHT22;68;48.792;9.164;2023-05-10T04:11:15;13.80;71.70
152;DHT22;68;48.792;9.164;2023-05-10T04:13:42;13.70;68.50
152;DHT22;68;48.792;9.164;2023-05-10T04:16:09;13.70;67.40
152;DHT22;68;48.792;9.164;2023-05-10T04:18:37;13.70;62.00
152;DHT22;68;48.792;9.164;2023-05-10T04:21:10;13.50;61.90
152;DHT22;68;48.792;9.164;2023-05-10T04:23:37;13.70;58.10
152;DHT22;68;48.792;9.164;2023-05-10T04:26:04;13.80;58.70
152;DHT22;68;48.792;9.164;2023-05-10T04:28:30;13.90;61.60
152;DHT22;68;48.792;9.164;2023-05-10T04:31:01;13.70;64.20
152;DHT22;68;48.792;9.164;2023-05-10T04:33:28;13.50;60.20
152;DHT22;68;48.792;9.164;2023-05-10T04:35:56;13.40;55.30
152;DHT22;68;48.792;9.164;2023-05-10T04:38:23;13.60;53.80
152;DHT22;68;48.792;9.164;2023-05-10T04:40:50;13.90;52.30
152;DHT22;68;48.792;9.164;2023-05-10T04:43:17;13.90;55.40
152;DHT22;68;48.792;9.164;2023-05-10T04:45:44;13.90;60.20
152;DHT22;68;48.792;9.164;2023-05-10T04:48:10;13.90;57.90
152;DHT22;68;48.792;9.164;2023-05-10T04:50:38;13.80;61.80
152;DHT22;68;48.792;9.164;2023-05-10T04:53:06;13.60;58.50
152;DHT22;68;48.792;9.164;2023-05-10T04:55:33;13.60;56.50
152;DHT22;68;48.792;9.164;2023-05-10T04:58:00;13.80;53.30
152;DHT22;68;48.792;9.164;2023-05-10T05:00:27;13.80;57.30
152;DHT22;68;48.792;9.164;2023-05-10T05:02:53;13.80;54.00
152;DHT22;68;48.792;9.164;2023-05-10T05:05:20;13.80;56.10
152;DHT22;68;48.792;9.164;2023-05-10T05:07:47;14.00;52.50
152;DHT22;68;48.792;9.164;2023-05-10T05:10:15;13.90;57.90
152;DHT22;68;48.792;9.164;2023-05-10T05:12:42;13.70;55.30
152;DHT22;68;48.792;9.164;2023-05-10T05:15:09;13.70;49.90
152;DHT22;68;48.792;9.164;2023-05-10T05:17:36;14.00;49.70
152;DHT22;68;48.792;9.164;2023-05-10T05:20:04;14.20;54.10
152;DHT22;68;48.792;9.164;2023-05-10T05:22:31;14.50;59.50
152;DHT22;68;48.792;9.164;2023-05-10T05:24:58;14.40;66.70
152;DHT22;68;48.792;9.164;2023-05-10T05:27:26;14.50;69.90
152;DHT22;68;48.792;9.164;2023-05-10T05:29:53;14.50;75.30
152;DHT22;68;48.792;9.164;2023-05-10T05:32:20;14.60;80.40
152;DHT22;68;48.792;9.164;2023-05-10T05:34:47;14.60;81.60
152;DHT22;68;48.792;9.164;2023-05-10T05:37:14;14.70;81.80
152;DHT22;68;48.792;9.164;2023-05-10T05:39:41;14.70;82.70
152;DHT22;68;48.792;9.164;2023-05-10T05:42:08;14.90;83.10
152;DHT22;68;48.792;9.164;2023-05-10T05:44:36;15.00;85.00
152;DHT22;68;48.792;9.164;2023-05-10T05:47:03;15.00;85.60
152;DHT22;68;48.792;9.164;2023-05-10T05:49:30;14.80;84.70
152;DHT22;68;48.792;9.164;2023-05-10T05:51:59;14.80;84.20
152;DHT22;68;48.792;9.164;2023-05-10T05:54:26;14.90;83.90
152;DHT22;68;48.792;9.164;2023-05-10T05:56:54;14.90;85.10
152;DHT22;68;48.792;9.164;2023-05-10T05:59:21;14.90;85.30
152;DHT22;68;48.792;9.164;2023-05-10T06:01:49;15.10;85.50
152;DHT22;68;48.792;9.164;2023-05-10T06:04:16;14.60;87.70
152;DHT22;68;48.792;9.164;2023-05-10T06:06:43;14.60;84.30
152;DHT22;68;48.792;9.164;2023-05-10T06:09:11;14.40;80.40
152;DHT22;68;48.792;9.164;2023-05-10T06:11:38;14.60;75.70
152;DHT22;68;48.792;9.164;2023-05-10T06:14:04;14.60;77.70
152;DHT22;68;48.792;9.164;2023-05-10T06:16:32;14.70;78.20
152;DHT22;68;48.792;9.164;2023-05-10T06:19:01;14.60;77.90
152;DHT22;68;48.792;9.164;2023-05-10T06:21:27;14.70;77.60
152;DHT22;68;48.792;9.164;2023-05-10T06:23:54;14.70;78.10
152;DHT22;68;48.792;9.164;2023-05-10T06:26:21;14.70;79.00
152;DHT22;68;48.792;9.164;2023-05-10T06:28:48;14.60;80.30
152;DHT22;68;48.792;9.164;2023-05-10T06:31:14;14.60;81.10
152;DHT22;68;48.792;9.164;2023-05-10T06:33:41;14.50;81.80
152;DHT22;68;48.792;9.164;2023-05-10T06:36:09;14.50;81.60
152;DHT22;68;48.792;9.164;2023-05-10T06:38:36;14.50;78.60
152;DHT22;68;48.792;9.164;2023-05-10T06:41:03;14.50;78.50
152;DHT22;68;48.792;9.164;2023-05-10T06:43:30;14.60;77.50
152;DHT22;68;48.792;9.164;2023-05-10T06:45:57;14.60;77.60
152;DHT22;68;48.792;9.164;2023-05-10T06:48:23;14.50;74.90
152;DHT22;68;48.792;9.164;2023-05-10T06:50:50;14.60;74.40
152;DHT22;68;48.792;9.164;2023-05-10T06:53:18;14.50;76.60
152;DHT22;68;48.792;9.164;2023-05-10T06:55:45;14.60;76.90
152;DHT22;68;48.792;9.164;2023-05-10T06:58:12;14.60;77.80
152;DHT22;68;48.792;9.164;2023-05-10T07:00:39;14.50;77.60
152;DHT22;68;48.792;9.164;2023-05-10T07:03:13;14.60;75.50
152;DHT22;68;48.792;9.164;2023-05-10T07:05:39;14.60;79.70
152;DHT22;68;48.792;9.164;2023-05-10T07:08:06;14.40;80.30
152;DHT22;68;48.792;9.164;2023-05-10T07:10:35;14.60;77.10
152;DHT22;68;48.792;9.164;2023-05-10T07:13:01;14.60;79.30
152;DHT22;68;48.792;9.164;2023-05-10T07:15:28;14.70;81.30
152;DHT22;68;48.792;9.164;2023-05-10T07:17:55;14.90;80.30
152;DHT22;68;48.792;9.164;2023-05-10T07:20:22;14.80;83.40
152;DHT22;68;48.792;9.164;2023-05-10T07:22:48;15.00;83.60
152;DHT22;68;48.792;9.164;2023-05-10T07:25:15;15.10;85.90
152;DHT22;68;48.792;9.164;2023-05-10T07:27:43;15.00;85.40
152;DHT22;68;48.792;9.164;2023-05-10T07:30:11;15.20;83.70
152;DHT22;68;48.792;9.164;2023-05-10T07:32:38;15.30;86.60
152;DHT22;68;48.792;9.164;2023-05-10T07:35:08;15.30;86.00
152;DHT22;68;48.792;9.164;2023-05-10T07:37:34;15.30;88.90
152;DHT22;68;48.792;9.164;2023-05-10T07:40:01;15.20;84.60
152;DHT22;68;48.792;9.164;2023-05-10T07:42:28;15.20;85.00
152;DHT22;68;48.792;9.164;2023-05-10T07:44:56;15.30;83.10
152;DHT22;68;48.792;9.164;2023-05-10T07:47:23;15.30;83.90
152;DHT22;68;48.792;9.164;2023-05-10T07:49:50;15.30;80.50
152;DHT22;68;48.792;9.164;2023-05-10T07:52:16;15.30;83.10
152;DHT22;68;48.792;9.164;2023-05-10T07:54:43;15.20;90.20
152;DHT22;68;48.792;9.164;2023-05-10T07:57:11;15.30;91.40
152;DHT22;68;48.792;9.164;2023-05-10T07:59:40;15.40;92.00
152;DHT22;68;48.792;9.164;2023-05-10T08:02:08;15.40;92.50
152;DHT22;68;48.792;9.164;2023-05-10T08:04:34;15.50;93.00
152;DHT22;68;48.792;9.164;2023-05-10T08:07:01;15.60;92.90
152;DHT22;68;48.792;9.164;2023-05-10T08:09:28;15.50;93.90
152;DHT22;68;48.792;9.164;2023-05-10T08:11:55;15.40;94.00
152;DHT22;68;48.792;9.164;2023-05-10T08:14:21;15.30;93.90
152;DHT22;68;48.792;9.164;2023-05-10T08:16:48;15.40;93.50
152;DHT22;68;48.792;9.164;2023-05-10T08:19:16;15.50;92.90
152;DHT22;68;48.792;9.164;2023-05-10T08:21:44;15.40;90.50
152;DHT22;68;48.792;9.164;2023-05-10T08:24:11;15.30;92.30
152;DHT22;68;48.792;9.164;2023-05-10T08:26:38;15.40;91.30
152;DHT22;68;48.792;9.164;2023-05-10T08:29:05;15.60;90.00
152;DHT22;68;48.792;9.164;2023-05-10T08:31:32;15.60;92.00
152;DHT22;68;48.792;9.164;2023-05-10T08:33:58;15.50;88.60
152;DHT22;68;48.792;9.164;2023-05-10T08:36:27;15.40;89.40
152;DHT22;68;48.792;9.164;2023-05-10T08:38:54;15.30;91.50
152;DHT22;68;48.792;9.164;2023-05-10T08:41:21;15.30;91.40
152;DHT22;68;48.792;9.164;2023-05-10T08:43:50;15.40;89.70
152;DHT22;68;48.792;9.164;2023-05-10T08:46:18;15.40;93.50
152;DHT22;68;48.792;9.164;2023-05-10T08:48:46;15.50;94.40
152;DHT22;68;48.792;9.164;2023-05-10T08:51:14;15.70;95.00
152;DHT22;68;48.792;9.164;2023-05-10T08:53:43;15.60;94.90
152;DHT22;68;48.792;9.164;2023-05-10T08:56:10;15.80;94.20
152;DHT22;68;48.792;9.164;2023-05-10T08:58:38;15.50;94.00
152;DHT22;68;48.792;9.164;2023-05-10T09:01:05;15.50;93.20
152;DHT22;68;48.792;9.164;2023-05-10T09:03:31;15.70;94.30
152;DHT22;68;48.792;9.164;2023-05-10T09:05:58;15.50;95.20
152;DHT22;68;48.792;9.164;2023-05-10T09:08:26;15.50;95.10
152;DHT22;68;48.792;9.164;2023-05-10T09:10:55;15.70;94.80
152;DHT22;68;48.792;9.164;2023-05-10T09:13:22;16.00;95.10
152;DHT22;68;48.792;9.164;2023-05-10T09:15:49;16.00;94.90
152;DHT22;68;48.792;9.164;2023-05-10T09:18:17;16.00;94.30
152;DHT22;68;48.792;9.164;2023-05-10T09:20:43;16.00;94.50
152;DHT22;68;48.792;9.164;2023-05-10T09:23:10;15.90;93.10
152;DHT22;68;48.792;9.164;2023-05-10T09:25:38;15.90;92.60
152;DHT22;68;48.792;9.164;2023-05-10T09:28:08;15.70;93.80
152;DHT22;68;48.792;9.164;2023-05-10T09:30:35;15.70;93.00
152;DHT22;68;48.792;9.164;2023-05-10T09:33:02;15.70;93.50
152;DHT22;68;48.792;9.164;2023-05-10T09:35:32;15.60;92.20
152;DHT22;68;48.792;9.164;2023-05-10T09:38:00;15.50;93.50
152;DHT22;68;48.792;9.164;2023-05-10T09:40:29;15.80;93.60
152;DHT22;68;48.792;9.164;2023-05-10T09:42:57;16.00;92.70
152;DHT22;68;48.792;9.164;2023-05-10T09:45:26;16.20;92.80
152;DHT22;68;48.792;9.164;2023-05-10T09:47:54;16.40;91.70
152;DHT22;68;48.792;9.164;2023-05-10T09:50:21;16.40;89.40
152;DHT22;68;48.792;9.164;2023-05-10T09:52:50;16.30;89.60
152;DHT22;68;48.792;9.164;2023-05-10T09:55:18;16.20;91.90
152;DHT22;68;48.792;9.164;2023-05-10T09:57:46;16.40;92.50
152;DHT22;68;48.792;9.164;2023-05-10T10:00:17;16.10;87.30
152;DHT22;68;48.792;9.164;2023-05-10T10:02:47;16.20;90.90
152;DHT22;68;48.792;9.164;2023-05-10T10:05:14;16.10;90.00
152;DHT22;68;48.792;9.164;2023-05-10T10:07:41;16.20;91.20
152;DHT22;68;48.792;9.164;2023-05-10T10:10:09;16.10;90.70
152;DHT22;68;48.792;9.164;2023-05-10T10:12:39;15.80;93.40
152;DHT22;68;48.792;9.164;2023-05-10T10:15:07;15.70;94.20
152;DHT22;68;48.792;9.164;2023-05-10T10:17:36;15.50;93.80
152;DHT22;68;48.792;9.164;2023-05-10T10:20:06;15.60;94.60
152;DHT22;68;48.792;9.164;2023-05-10T10:22:33;15.60;94.40
152;DHT22;68;48.792;9.164;2023-05-10T10:25:00;15.70;93.40
152;DHT22;68;48.792;9.164;2023-05-10T10:27:36;15.90;93.60
152;DHT22;68;48.792;9.164;2023-05-10T10:30:13;16.10;94.40
152;DHT22;68;48.792;9.164;2023-05-10T10:33:01;16.10;92.60
152;DHT22;68;48.792;9.164;2023-05-10T10:35:34;16.40;92.60
152;DHT22;68;48.792;9.164;2023-05-10T10:38:02;16.40;91.90
152;DHT22;68;48.792;9.164;2023-05-10T10:40:30;16.50;88.80
152;DHT22;68;48.792;9.164;2023-05-10T10:42:57;16.50;87.00
152;DHT22;68;48.792;9.164;2023-05-10T10:45:25;16.50;86.90
152;DHT22;68;48.792;9.164;2023-05-10T10:48:19;16.60;87.40
152;DHT22;68;48.792;9.164;2023-05-10T10:50:48;16.60;87.90
152;DHT22;68;48.792;9.164;2023-05-10T10:53:22;16.50;88.10
152;DHT22;68;48.792;9.164;2023-05-10T10:55:49;16.40;88.90
152;DHT22;68;48.792;9.164;2023-05-10T10:58:29;16.30;86.90
152;DHT22;68;48.792;9.164;2023-05-10T11:01:13;16.20;85.60
152;DHT22;68;48.792;9.164;2023-05-10T11:03:41;16.30;84.30
152;DHT22;68;48.792;9.164;2023-05-10T11:06:09;16.40;83.80
152;DHT22;68;48.792;9.164;2023-05-10T11:08:42;16.30;83.20
152;DHT22;68;48.792;9.164;2023-05-10T11:11:14;16.20;83.30
152;DHT22;68;48.792;9.164;2023-05-10T11:13:42;16.10;83.80
152;DHT22;68;48.792;9.164;2023-05-10T11:16:17;15.90;84.00
152;DHT22;68;48.792;9.164;2023-05-10T11:18:56;15.90;83.50
152;DHT22;68;48.792;9.164;2023-05-10T11:21:25;15.90;83.10
152;DHT22;68;48.792;9.164;2023-05-10T11:23:53;15.70;85.40
152;DHT22;68;48.792;9.164;2023-05-10T11:26:22;15.70;85.30
152;DHT22;68;48.792;9.164;2023-05-10T11:28:52;15.70;85.90
152;DHT22;68;48.792;9.164;2023-05-10T11:31:20;15.70;86.40
152;DHT22;68;48.792;9.164;2023-05-10T11:33:48;16.10;86.80
152;DHT22;68;48.792;9.164;2023-05-10T11:36:17;16.50;86.20
152;DHT22;68;48.792;9.164;2023-05-10T11:38:46;16.70;80.50
152;DHT22;68;48.792;9.164;2023-05-10T11:41:14;16.70;82.80
152;DHT22;68;48.792;9.164;2023-05-10T11:43:41;16.80;83.20
152;DHT22;68;48.792;9.164;2023-05-10T11:46:11;16.80;81.20
152;DHT22;68;48.792;9.164;2023-05-10T11:48:39;16.90;81.50
152;DHT22;68;48.792;9.164;2023-05-10T11:51:06;16.70;82.00
152;DHT22;68;48.792;9.164;2023-05-10T11:53:33;16.60;85.40
152;DHT22;68;48.792;9.164;2023-05-10T11:56:05;16.40;81.00
152;DHT22;68;48.792;9.164;2023-05-10T11:58:32;16.40;81.90
152;DHT22;68;48.792;9.164;2023-05-10T12:01:00;16.40;82.50
152;DHT22;68;48.792;9.164;2023-05-10T12:03:27;16.20;81.70
152;DHT22;68;48.792;9.164;2023-05-10T12:05:55;16.10;82.40
152;DHT22;68;48.792;9.164;2023-05-10T12:08:23;16.00;82.30
152;DHT22;68;48.792;9.164;2023-05-10T12:10:50;16.10;82.70
152;DHT22;68;48.792;9.164;2023-05-10T12:13:19;16.00;83.00
152;DHT22;68;48.792;9.164;2023-05-10T12:15:46;15.80;83.60
152;DHT22;68;48.792;9.164;2023-05-10T12:18:14;15.90;83.30
152;DHT22;68;48.792;9.164;2023-05-10T12:20:41;15.80;82.60
152;DHT22;68;48.792;9.164;2023-05-10T12:23:09;15.90;84.20
152;DHT22;68;48.792;9.164;2023-05-10T12:25:37;16.00;84.90
152;DHT22;68;48.792;9.164;2023-05-10T12:28:05;16.10;83.60
152;DHT22;68;48.792;9.164;2023-05-10T12:30:35;16.20;84.60
152;DHT22;68;48.792;9.164;2023-05-10T12:33:06;16.20;84.50
152;DHT22;68;48.792;9.164;2023-05-10T12:35:43;16.30;85.40
152;DHT22;68;48.792;9.164;2023-05-10T12:38:26;16.40;82.20
152;DHT22;68;48.792;9.164;2023-05-10T12:40:55;16.60;81.00
152;DHT22;68;48.792;9.164;2023-05-10T12:43:21;16.60;81.30
152;DHT22;68;48.792;9.164;2023-05-10T12:45:50;16.50;78.60
152;DHT22;68;48.792;9.164;2023-05-10T12:48:17;16.30;79.30
152;DHT22;68;48.792;9.164;2023-05-10T12:50:44;16.30;79.00
152;DHT22;68;48.792;9.164;2023-05-10T12:53:11;16.40;80.20
152;DHT22;68;48.792;9.164;2023-05-10T12:55:39;16.40;80.20
152;DHT22;68;48.792;9.164;2023-05-10T12:58:06;16.50;79.10
152;DHT22;68;48.792;9.164;2023-05-10T13:00:32;16.40;83.00
152;DHT22;68;48.792;9.164;2023-05-10T13:03:00;16.60;81.60
152;DHT22;68;48.792;9.164;2023-05-10T13:05:28;16.50;82.90
152;DHT22;68;48.792;9.164;2023-05-10T13:07:54;16.40;80.50
152;DHT22;68;48.792;9.164;2023-05-10T13:10:21;16.20;83.50
152;DHT22;68;48.792;9.164;2023-05-10T13:12:49;16.10;82.70
152;DHT22;68;48.792;9.164;2023-05-10T13:15:16;16.10;81.30
152;DHT22;68;48.792;9.164;2023-05-10T13:17:42;16.30;82.70
152;DHT22;68;48.792;9.164;2023-05-10T13:20:12;16.50;82.50
152;DHT22;68;48.792;9.164;2023-05-10T13:22:39;16.50;79.70
152;DHT22;68;48.792;9.164;2023-05-10T13:25:06;16.60;79.40
152;DHT22;68;48.792;9.164;2023-05-10T13:27:33;16.60;77.60
152;DHT22;68;48.792;9.164;2023-05-10T13:29:59;16.60;77.80
152;DHT22;68;48.792;9.164;2023-05-10T13:32:26;16.80;78.10
152;DHT22;68;48.792;9.164;2023-05-10T13:34:53;16.70;77.20
152;DHT22;68;48.792;9.164;2023-05-10T13:37:22;16.80;77.60
152;DHT22;68;48.792;9.164;2023-05-10T13:39:48;16.70;77.20
152;DHT22;68;48.792;9.164;2023-05-10T13:42:15;16.80;77.70
152;DHT22;68;48.792;9.164;2023-05-10T13:44:42;17.00;80.40
152;DHT22;68;48.792;9.164;2023-05-10T13:47:09;17.00;76.60
152;DHT22;68;48.792;9.164;2023-05-10T13:49:36;16.80;79.50
152;DHT22;68;48.792;9.164;2023-05-10T13:52:03;16.80;78.50
152;DHT22;68;48.792;9.164;2023-05-10T13:54:33;16.70;80.00
152;DHT22;68;48.792;9.164;2023-05-10T13:57:01;16.60;79.80
152;DHT22;68;48.792;9.164;2023-05-10T13:59:28;16.80;79.50
152;DHT22;68;48.792;9.164;2023-05-10T14:01:57;16.80;78.30
152;DHT22;68;48.792;9.164;2023-05-10T14:04:23;16.90;79.60
152;DHT22;68;48.792;9.164;2023-05-10T14:06:50;17.00;78.60
152;DHT22;68;48.792;9.164;2023-05-10T14:09:18;16.90;80.10
152;DHT22;68;48.792;9.164;2023-05-10T14:11:46;16.90;75.20
152;DHT22;68;48.792;9.164;2023-05-10T14:14:13;17.00;73.70
152;DHT22;68;48.792;9.164;2023-05-10T14:16:42;17.10;73.40
152;DHT22;68;48.792;9.164;2023-05-10T14:19:09;17.00;73.70
152;DHT22;68;48.792;9.164;2023-05-10T14:21:36;16.80;72.00
152;DHT22;68;48.792;9.164;2023-05-10T14:24:03;16.90;75.50
152;DHT22;68;48.792;9.164;2023-05-10T14:26:30;17.00;72.60
152;DHT22;68;48.792;9.164;2023-05-10T14:28:58;16.90;72.50
152;DHT22;68;48.792;9.164;2023-05-10T14:31:25;17.00;73.40
152;DHT22;68;48.792;9.164;2023-05-10T14:33:52;17.00;76.40
152;DHT22;68;48.792;9.164;2023-05-10T14:36:19;16.70;72.90
152;DHT22;68;48.792;9.164;2023-05-10T14:38:46;16.70;74.60
152;DHT22;68;48.792;9.164;2023-05-10T14:41:13;16.60;76.80
152;DHT22;68;48.792;9.164;2023-05-10T14:43:40;16.70;75.40
152;DHT22;68;48.792;9.164;2023-05-10T14:46:08;16.70;74.90
152;DHT22;68;48.792;9.164;2023-05-10T14:48:35;16.70;78.90
152;DHT22;68;48.792;9.164;2023-05-10T14:51:02;16.70;77.70
152;DHT22;68;48.792;9.164;2023-05-10T14:53:29;16.80;76.00
152;DHT22;68;48.792;9.164;2023-05-10T14:55:56;17.00;74.60
152;DHT22;68;48.792;9.164;2023-05-10T14:58:22;17.00;75.20
152;DHT22;68;48.792;9.164;2023-05-10T15:00:49;16.90;76.20
152;DHT22;68;48.792;9.164;2023-05-10T15:03:17;17.00;75.70
152;DHT22;68;48.792;9.164;2023-05-10T15:05:44;17.00;75.70
152;DHT22;68;48.792;9.164;2023-05-10T15:08:11;16.80;76.50
152;DHT22;68;48.792;9.164;2023-05-10T15:10:38;16.70;78.10
152;DHT22;68;48.792;9.164;2023-05-10T15:13:05;16.90;75.60
152;DHT22;68;48.792;9.164;2023-05-10T15:15:31;16.80;78.40
152;DHT22;68;48.792;9.164;2023-05-10T15:17:58;16.80;78.20
152;DHT22;68;48.792;9.164;2023-05-10T15:20:26;16.90;76.50
152;DHT22;68;48.792;9.164;2023-05-10T15:22:53;17.20;76.10
152;DHT22;68;48.792;9.164;2023-05-10T15:25:20;17.00;78.50
152;DHT22;68;48.792;9.164;2023-05-10T15:27:48;16.70;78.20
152;DHT22;68;48.792;9.164;2023-05-10T15:30:14;16.60;79.10
152;DHT22;68;48.792;9.164;2023-05-10T15:32:41;16.80;79.70
152;DHT22;68;48.792;9.164;2023-05-10T15:35:08;16.80;78.50
152;DHT22;68;48.792;9.164;2023-05-10T15:37:37;16.70;78.10
152;DHT22;68;48.792;9.164;2023-05-10T15:40:05;16.70;77.10
152;DHT22;68;48.792;9.164;2023-05-10T15:42:32;16.80;76.70
152;DHT22;68;48.792;9.164;2023-05-10T15:44:58;17.00;76.20
152;DHT22;68;48.792;9.164;2023-05-10T15:47:25;17.20;76.40
152;DHT22;68;48.792;9.164;2023-05-10T15:49:53;17.40;74.70
152;DHT22;68;48.792;9.164;2023-05-10T15:52:20;17.30;78.10
152;DHT22;68;48.792;9.164;2023-05-10T15:54:49;17.20;78.50
152;DHT22;68;48.792;9.164;2023-05-10T15:57:16;17.20;76.20
152;DHT22;68;48.792;9.164;2023-05-10T15:59:43;17.10;74.40
152;DHT22;68;48.792;9.164;2023-05-10T16:02:10;17.00;73.10
152;DHT22;68;48.792;9.164;2023-05-10T16:04:37;17.00;72.60
152;DHT22;68;48.792;9.164;2023-05-10T16:07:04;17.00;74.60
152;DHT22;68;48.792;9.164;2023-05-10T16:09:31;17.10;73.50
152;DHT22;68;48.792;9.164;2023-05-10T16:11:59;17.30;73.80
152;DHT22;68;48.792;9.164;2023-05-10T16:14:26;17.70;72.40
152;DHT22;68;48.792;9.164;2023-05-10T16:16:53;17.40;75.20
152;DHT22;68;48.792;9.164;2023-05-10T16:19:20;17.30;77.90
152;DHT22;68;48.792;9.164;2023-05-10T16:21:46;17.30;74.10
152;DHT22;68;48.792;9.164;2023-05-10T16:24:13;17.10;76.70
152;DHT22;68;48.792;9.164;2023-05-10T16:26:40;17.00;78.50
152;DHT22;68;48.792;9.164;2023-05-10T16:29:08;17.20;79.00
152;DHT22;68;48.792;9.164;2023-05-10T16:31:35;17.50;76.10
152;DHT22;68;48.792;9.164;2023-05-10T16:34:02;17.10;73.20
152;DHT22;68;48.792;9.164;2023-05-10T16:36:29;17.00;75.20
152;DHT22;68;48.792;9.164;2023-05-10T16:38:56;16.70;75.10
152;DHT22;68;48.792;9.164;2023-05-10T16:41:22;16.80;76.30
152;DHT22;68;48.792;9.164;2023-05-10T16:43:49;16.80;78.10
152;DHT22;68;48.792;9.164;2023-05-10T16:46:17;16.80;77.10
152;DHT22;68;48.792;9.164;2023-05-10T16:48:44;17.00;76.80
152;DHT22;68;48.792;9.164;2023-05-10T16:51:11;17.10;76.10
152;DHT22;68;48.792;9.164;2023-05-10T16:53:38;17.20;79.30
152;DHT22;68;48.792;9.164;2023-05-10T16:56:05;17.10;78.40
152;DHT22;68;48.792;9.164;2023-05-10T16:58:32;17.20;77.40